Time;durP1;ratioP1;P1;durP2;ratioP2;P2;SDS_P1;SDS_P2;PMS_P1;PMS_P2;Temp;Humidity;BMP_temperature;BMP_pressure;BME280_temperature;BME280_humidity;BME280_pressure;Samples;Min_cycle;Max_cycle;Signal;HPM_P1;HPM_P2
2023/01/14 00:02:22;;;;;;;4.70;1.23;;;;;;;19.20;40.96;101499.09;16127219;19;129750;-48
2023/01/14 00:07:43;;;;;;;4.72;1.70;;;;;;;19.18;40.76;101515.94;16128755;19;129609;-47
2023/01/14 00:13:05;;;;;;;5.53;1.70;;;;;;;19.16;40.53;101495.91;16127410;19;129554;-49
2023/01/14 00:18:27;;;;;;;4.93;1.40;;;;;;;19.12;40.88;101493.84;16125701;19;129913;-49
2023/01/14 00:23:55;;;;;;;6.70;1.27;;;;;;;19.10;40.82;101496.00;16120387;19;129835;-47
2023/01/14 00:29:22;;;;;;;9.20;1.40;;;;;;;19.10;40.93;101490.47;16123229;19;129943;-45
2023/01/14 00:34:44;;;;;;;6.65;1.60;;;;;;;19.11;40.88;101487.47;16124707;19;129599;-47
2023/01/14 00:40:06;;;;;;;10.55;1.83;;;;;;;19.12;40.54;101486.41;16125205;19;130229;-45
2023/01/14 00:45:28;;;;;;;6.05;1.48;;;;;;;19.13;40.80;101484.47;16124710;19;130178;-45
2023/01/14 00:50:50;;;;;;;9.82;1.65;;;;;;;19.14;40.35;101483.38;16125746;19;130138;-46
2023/01/14 00:56:16;;;;;;;7.07;1.65;;;;;;;19.14;40.79;101488.94;16124699;19;129559;-47
2023/01/14 01:01:38;;;;;;;9.90;1.98;;;;;;;19.15;40.36;101476.75;16125511;19;129620;-45
2023/01/14 01:07:01;;;;;;;7.63;1.63;;;;;;;19.14;40.23;101484.22;16124384;19;132253;-45
2023/01/14 01:12:23;;;;;;;10.05;1.45;;;;;;;19.13;40.53;101477.00;16128416;19;129763;-47
2023/01/14 01:17:45;;;;;;;5.65;1.75;;;;;;;19.11;40.69;101469.97;16127190;19;129593;-46
2023/01/14 01:23:09;;;;;;;5.60;1.40;;;;;;;19.06;40.68;101454.91;16120822;19;130431;-46
2023/01/14 01:28:32;;;;;;;7.37;1.73;;;;;;;19.01;40.42;101454.75;16120604;19;129515;-48
2023/01/14 01:33:55;;;;;;;6.97;1.40;;;;;;;18.99;40.54;101461.63;16122825;19;130388;-48
2023/01/14 01:39:17;;;;;;;10.00;1.38;;;;;;;18.95;40.52;101461.28;16117267;19;130245;-50
2023/01/14 01:44:41;;;;;;;5.13;1.27;;;;;;;18.93;40.48;101466.19;16119361;19;130130;-48
2023/01/14 01:50:03;;;;;;;5.57;1.58;;;;;;;18.89;40.12;101462.19;16118622;19;129586;-48
2023/01/14 01:55:25;;;;;;;5.15;1.40;;;;;;;18.87;40.56;101458.81;16117729;19;130500;-46
2023/01/14 02:00:47;;;;;;;5.25;1.42;;;;;;;18.83;40.25;101446.50;16119370;19;129913;-47
2023/01/14 02:06:11;;;;;;;6.95;1.38;;;;;;;18.82;40.03;101433.72;16124783;19;130591;-46
2023/01/14 02:11:47;;;;;;;5.25;1.45;;;;;;;18.82;39.95;101433.72;16119322;19;129402;-50
2023/01/14 02:17:18;;;;;;;5.80;1.58;;;;;;;18.77;39.96;101426.97;16119327;19;129321;-50
2023/01/14 02:23:04;;;;;;;4.47;1.38;;;;;;;18.75;40.38;101419.97;16117465;19;130966;-48
2023/01/14 02:28:58;;;;;;;6.68;1.80;;;;;;;18.72;39.89;101401.84;16115537;19;130097;-49
2023/01/14 02:34:32;;;;;;;5.97;1.33;;;;;;;18.70;40.17;101384.66;16115691;19;129562;-47
2023/01/14 02:40:06;;;;;;;3.60;1.50;;;;;;;18.69;40.20;101382.94;16116258;19;129742;-50
2023/01/14 02:45:39;;;;;;;3.08;1.40;;;;;;;18.69;40.16;101385.72;16117176;19;129292;-46
2023/01/14 02:51:01;;;;;;;6.63;1.63;;;;;;;18.65;39.98;101367.88;16132659;19;129556;-47
2023/01/14 02:56:24;;;;;;;3.45;1.35;;;;;;;18.63;40.01;101358.94;16134855;19;130249;-47
2023/01/14 03:02:00;;;;;;;4.03;1.10;;;;;;;18.61;40.09;101344.47;16131508;19;129642;-46
2023/01/14 03:07:27;;;;;;;6.47;1.85;;;;;;;18.61;39.99;101327.84;16133136;19;129715;-46
2023/01/14 03:13:20;;;;;;;4.95;1.48;;;;;;;18.60;40.06;101328.91;16131916;19;129579;-47
2023/01/14 03:18:50;;;;;;;4.53;1.38;;;;;;;18.58;39.83;101312.53;16133753;19;129645;-46
2023/01/14 03:24:18;;;;;;;4.18;1.17;;;;;;;18.55;39.70;101295.56;16131532;19;129648;-45
2023/01/14 03:29:44;;;;;;;3.20;0.88;;;;;;;18.54;39.90;101293.84;16131338;19;131214;-46
2023/01/14 03:35:10;;;;;;;5.32;1.35;;;;;;;18.52;39.90;101291.34;16131586;19;129623;-50
2023/01/14 03:40:36;;;;;;;4.38;1.42;;;;;;;18.52;39.63;101290.47;16130689;19;129132;-48
2023/01/14 03:45:58;;;;;;;4.38;1.50;;;;;;;18.50;39.90;101273.25;16128201;19;130287;-45
2023/01/14 03:51:34;;;;;;;2.35;0.90;;;;;;;18.50;39.55;101262.16;16127594;19;129751;-45
2023/01/14 03:57:18;;;;;;;4.00;1.00;;;;;;;18.50;39.55;101259.38;16128193;19;129681;-47
2023/01/14 04:02:42;;;;;;;6.13;1.33;;;;;;;18.46;39.72;101242.41;16127079;19;129876;-50
2023/01/14 04:08:05;;;;;;;4.20;1.33;;;;;;;18.46;39.79;101231.31;16127636;19;129314;-45
2023/01/14 04:19:07;;;;;;;3.70;1.17;;;;;;;18.39;39.57;101203.72;16127904;19;129708;-46
2023/01/14 04:24:29;;;;;;;4.35;1.25;;;;;;;18.38;39.90;101190.09;16126070;19;130411;-46
2023/01/14 04:29:51;;;;;;;4.45;1.60;;;;;;;18.36;39.34;101181.16;16126769;19;129501;-49
2023/01/14 04:35:12;;;;;;;3.78;1.10;;;;;;;18.36;39.67;101170.09;16127038;19;129981;-47
2023/01/14 04:40:34;;;;;;;4.22;1.10;;;;;;;18.33;39.58;101154.81;16125867;19;129487;-53
2023/01/14 04:45:56;;;;;;;5.30;1.33;;;;;;;18.32;39.49;101147.56;16126868;19;129293;-52
2023/01/14 04:51:17;;;;;;;6.10;1.40;;;;;;;18.30;39.39;101149.72;16125430;19;129618;-51
2023/01/14 04:56:39;;;;;;;2.90;1.20;;;;;;;18.30;39.61;101133.13;16126847;19;132719;-55
2023/01/14 05:02:01;;;;;;;3.50;1.00;;;;;;;18.29;39.30;101121.19;16124309;19;129345;-54
2023/01/14 05:07:23;;;;;;;2.33;1.05;;;;;;;18.28;39.20;101107.59;16126296;19;129248;-54
2023/01/14 05:12:55;;;;;;;3.53;1.38;;;;;;;18.27;39.30;101103.97;16127015;19;130692;-53
2023/01/14 05:18:18;;;;;;;4.53;1.10;;;;;;;18.25;39.43;101094.22;16124856;19;129435;-52
2023/01/14 05:23:39;;;;;;;2.97;1.08;;;;;;;18.24;39.25;101090.59;16124483;19;132076;-54
2023/01/14 05:29:01;;;;;;;4.38;1.25;;;;;;;18.23;39.27;101074.22;16124185;19;129603;-53
2023/01/14 05:34:23;;;;;;;4.65;1.17;;;;;;;18.21;39.02;101052.31;16122374;19;130371;-54
2023/01/14 05:39:45;;;;;;;4.00;1.10;;;;;;;18.20;38.84;101039.53;16123655;19;131167;-54
2023/01/14 05:50:54;;;;;;;3.30;1.15;;;;;;;18.18;38.78;101018.72;16124043;19;130666;-50
2023/01/14 05:56:16;;;;;;;2.88;1.17;;;;;;;18.17;39.21;101005.97;16124128;19;129511;-54
2023/01/14 06:07:18;;;;;;;3.67;1.00;;;;;;;18.13;38.72;100973.22;16123631;19;129437;-54
2023/01/14 06:12:57;;;;;;;4.07;1.45;;;;;;;18.12;38.88;100954.09;16123267;19;131138;-52
2023/01/14 06:18:22;;;;;;;2.55;1.00;;;;;;;18.11;38.85;100946.88;16121838;19;130553;-53
2023/01/14 06:23:45;;;;;;;4.73;1.00;;;;;;;18.11;38.74;100935.78;16133280;19;130420;-53
2023/01/14 06:29:10;;;;;;;4.10;1.25;;;;;;;18.10;38.54;100923.84;16135882;19;129343;-45
2023/01/14 06:34:31;;;;;;;3.28;1.10;;;;;;;18.09;38.62;100908.31;16134050;19;129299;-46
2023/01/14 06:39:53;;;;;;;2.78;1.02;;;;;;;18.10;38.43;100896.16;16134918;19;129418;-46
2023/01/14 06:45:15;;;;;;;4.45;1.30;;;;;;;18.15;38.39;100868.59;16131896;19;129549;-48
2023/01/14 06:50:37;;;;;;;3.25;1.00;;;;;;;18.42;38.13;100862.53;16134464;19;129193;-47
2023/01/14 06:56:06;;;;;;;2.20;0.95;;;;;;;18.89;37.91;100841.22;16132570;19;129627;-49
2023/01/14 07:01:28;;;;;;;2.20;0.90;;;;;;;19.40;37.03;100832.09;16132648;19;129724;-50
2023/01/14 07:06:53;;;;;;;2.95;1.00;;;;;;;19.79;36.97;100821.00;16132305;19;129192;-46
2023/01/14 07:12:14;;;;;;;3.63;1.20;;;;;;;20.03;36.30;100802.19;16131614;19;129175;-51
2023/01/14 07:17:37;;;;;;;2.85;1.02;;;;;;;20.16;36.16;100797.34;16133185;19;129736;-46
2023/01/14 07:23:03;;;;;;;3.28;1.00;;;;;;;20.16;36.23;100784.31;16132133;19;132902;-46
2023/01/14 07:28:26;;;;;;;1.85;0.90;;;;;;;20.09;36.08;100770.63;16131838;19;131253;-46
2023/01/14 07:33:48;;;;;;;2.33;0.77;;;;;;;20.00;36.34;100752.72;16126989;19;129354;-46
2023/01/14 07:39:10;;;;;;;2.85;0.95;;;;;;;19.88;35.95;100740.91;16129190;19;129495;-49
2023/01/14 07:44:32;;;;;;;2.15;0.80;;;;;;;19.77;36.53;100720.50;16127602;19;129454;-45
2023/01/14 07:49:54;;;;;;;3.30;1.00;;;;;;;19.63;36.24;100698.69;16126719;19;130319;-58
2023/01/14 07:55:16;;;;;;;3.25;1.10;;;;;;;19.50;36.52;100685.19;16126353;19;129467;-61
2023/01/14 08:00:37;;;;;;;3.15;1.10;;;;;;;19.39;36.78;100664.81;16127128;19;129582;-61
2023/01/14 08:06:04;;;;;;;3.53;1.08;;;;;;;19.30;36.80;100649.72;16128915;19;130818;-60
2023/01/14 08:11:26;;;;;;;2.47;1.02;;;;;;;19.20;36.68;100625.44;16127798;19;129046;-56
2023/01/14 08:16:47;;;;;;;2.20;0.77;;;;;;;19.12;37.17;100612.00;16129772;19;130373;-55
2023/01/14 08:22:09;;;;;;;2.63;0.85;;;;;;;19.04;36.92;100600.28;16133337;19;129881;-58
2023/01/14 08:27:32;;;;;;;3.22;0.73;;;;;;;19.01;37.12;100589.72;16127833;19;130930;-48
2023/01/14 08:32:53;;;;;;;3.70;0.70;;;;;;;18.98;37.27;100584.66;16127382;19;129224;-46
2023/01/14 08:38:15;;;;;;;3.80;0.70;;;;;;;18.94;37.15;100564.13;16124678;19;129554;-49
2023/01/14 08:43:38;;;;;;;9.65;1.20;;;;;;;18.93;37.21;100548.59;16124139;19;129701;-47
2023/01/14 08:48:59;;;;;;;9.27;1.23;;;;;;;18.90;37.08;100518.59;16123502;19;132246;-49
2023/01/14 08:54:21;;;;;;;6.68;1.05;;;;;;;18.86;37.27;100492.47;16124154;19;129420;-49
2023/01/14 08:59:43;;;;;;;4.47;0.77;;;;;;;18.82;37.16;100470.00;16136918;19;129799;-49
2023/01/14 09:05:05;;;;;;;5.00;0.90;;;;;;;18.78;37.73;100454.97;16136113;19;129356;-50
2023/01/14 09:21:56;;;;;;;6.00;1.20;;;;;;;18.63;37.99;100427.09;16124620;19;130937;-49
2023/01/14 09:27:19;;;;;;;6.07;0.93;;;;;;;18.61;37.56;100416.25;16123003;19;129412;-44
2023/01/14 09:32:41;;;;;;;9.77;1.50;;;;;;;18.70;37.81;100423.03;16123751;19;129216;-47
2023/01/14 09:38:03;;;;;;;5.38;1.00;;;;;;;18.83;37.43;100418.19;16122816;19;129687;-47
2023/01/14 09:43:29;;;;;;;3.13;0.82;;;;;;;18.99;37.71;100402.56;16122181;19;135948;-47
2023/01/14 09:48:52;;;;;;;3.65;0.90;;;;;;;19.13;37.19;100384.41;16122705;19;129516;-44
2023/01/14 09:54:31;;;;;;;5.47;0.93;;;;;;;19.28;37.14;100364.31;16121806;19;129610;-44
2023/01/14 10:00:02;;;;;;;3.47;0.80;;;;;;;19.37;37.17;100348.03;16121693;19;129492;-45
2023/01/14 10:05:28;;;;;;;5.70;1.00;;;;;;;19.44;37.06;100331.97;16119896;19;129591;-46
2023/01/14 10:10:50;;;;;;;6.88;0.95;;;;;;;19.50;36.87;100305.13;16120289;19;129956;-45
2023/01/14 10:16:31;;;;;;;4.03;0.90;;;;;;;19.52;37.01;100294.59;16118240;19;129489;-47
2023/01/14 10:22:13;;;;;;;4.18;1.38;;;;;;;19.49;37.41;100292.34;16119469;19;129915;-48
2023/01/14 10:27:35;;;;;;;17.52;1.83;;;;;;;19.44;37.49;100290.38;16119739;19;129548;-51
2023/01/14 10:32:58;;;;;;;9.02;1.35;;;;;;;19.39;37.54;100248.72;16120593;19;129503;-47
2023/01/14 10:38:23;;;;;;;8.48;1.00;;;;;;;19.34;37.68;100260.63;16117947;19;128963;-47
2023/01/14 10:43:45;;;;;;;10.10;1.20;;;;;;;19.28;37.77;100239.53;16118337;19;129766;-48
2023/01/14 10:49:16;;;;;;;5.32;0.80;;;;;;;19.20;37.91;100248.31;16117792;19;130778;-46
2023/01/14 10:55:12;;;;;;;5.70;0.85;;;;;;;19.13;38.29;100247.69;16119579;19;129736;-48
2023/01/14 11:00:46;;;;;;;12.30;1.30;;;;;;;19.04;38.31;100226.03;16105201;19;130033;-50
2023/01/14 11:06:12;;;;;;;27.02;5.25;;;;;;;18.98;38.89;100202.13;16113235;19;129958;-48
2023/01/14 11:11:39;;;;;;;32.47;9.20;;;;;;;19.01;39.13;100178.59;16128892;19;130046;-48
2023/01/14 11:17:39;;;;;;;19.80;6.15;;;;;;;19.07;39.33;100167.28;16133283;19;129174;-47
2023/01/14 11:23:02;;;;;;;21.38;7.45;;;;;;;19.16;39.05;100150.13;16122421;19;129462;-46
2023/01/14 11:28:24;;;;;;;31.60;7.53;;;;;;;19.23;39.22;100136.88;16121800;19;129537;-49
2023/01/14 11:33:52;;;;;;;18.05;5.53;;;;;;;19.32;38.81;100123.34;16122795;19;130132;-49
2023/01/14 11:39:21;;;;;;;22.30;5.88;;;;;;;19.43;39.26;100104.81;16119746;19;129799;-48
2023/01/14 11:44:56;;;;;;;14.07;4.47;;;;;;;19.53;38.71;100102.88;16118594;19;130885;-47
2023/01/14 11:50:32;;;;;;;12.45;3.38;;;;;;;19.61;38.51;100090.41;16118557;19;130360;-49
2023/01/14 11:55:55;;;;;;;;;;;;;;;19.57;38.39;100072.66;16126941;19;129539;-46
2023/01/14 12:01:28;;;;;;;9.88;2.22;;;;;;;19.61;37.88;100042.44;16124427;19;130171;-49
2023/01/14 12:07:11;;;;;;;8.35;2.40;;;;;;;19.56;38.78;100034.94;16126660;19;130185;-51
2023/01/14 12:18:34;;;;;;;6.85;1.25;;;;;;;19.46;38.78;100001.59;16125193;19;130346;-48
2023/01/14 12:24:39;;;;;;;7.38;1.60;;;;;;;19.41;39.09;99973.88;16127774;19;129461;-46
2023/01/14 12:30:02;;;;;;;23.27;2.50;;;;;;;19.42;38.98;99961.69;16124910;19;130738;-46
2023/01/14 12:35:27;;;;;;;18.83;1.52;;;;;;;19.53;38.66;99950.28;16126927;19;129807;-45
2023/01/14 12:46:32;;;;;;;13.07;1.17;;;;;;;19.96;38.84;99938.09;16124156;19;129702;-46
2023/01/14 12:51:54;;;;;;;15.35;1.10;;;;;;;20.08;38.77;99915.59;16126582;19;129246;-46
2023/01/14 12:57:22;;;;;;;8.48;0.98;;;;;;;20.12;38.79;99908.38;16125621;19;131029;-45
2023/01/14 13:02:48;;;;;;;17.50;1.05;;;;;;;20.13;38.92;99888.66;16126200;19;129209;-47
2023/01/14 13:08:37;;;;;;;7.03;1.00;;;;;;;20.10;38.96;99874.50;16125489;19;129792;-50
2023/01/14 13:14:03;;;;;;;10.10;0.95;;;;;;;20.03;39.50;99854.56;16128439;19;129533;-49
2023/01/14 13:19:25;;;;;;;8.60;1.27;;;;;;;19.95;39.14;99840.09;16124085;19;129350;-46
2023/01/14 13:24:47;;;;;;;2.38;0.52;;;;;;;19.88;39.26;99825.69;16126034;19;130111;-46
2023/01/14 13:30:18;;;;;;;6.28;0.55;;;;;;;19.81;39.15;99814.06;16125437;19;129134;-47
2023/01/14 13:35:40;;;;;;;14.43;0.80;;;;;;;19.65;39.08;99814.09;16125251;19;129873;-48
2023/01/14 13:41:08;;;;;;;7.75;0.73;;;;;;;19.61;39.59;99799.09;16121349;19;129362;-46
2023/01/14 13:46:34;;;;;;;9.95;0.85;;;;;;;19.64;39.59;99793.00;16122109;19;130900;-45
2023/01/14 13:52:03;;;;;;;18.15;1.52;;;;;;;19.65;39.96;99778.00;16120006;19;130102;-48
2023/01/14 13:57:37;;;;;;;15.95;1.45;;;;;;;19.76;40.27;99770.47;16119239;19;129789;-46
2023/01/14 14:03:34;;;;;;;20.02;1.15;;;;;;;20.01;40.02;99773.50;16120296;19;130781;-48
2023/01/14 14:09:05;;;;;;;13.57;1.30;;;;;;;20.25;40.21;99760.59;16120480;19;129871;-46
2023/01/14 14:14:33;;;;;;;9.73;1.25;;;;;;;20.49;40.40;99750.75;16120007;19;130429;-45
2023/01/14 14:19:57;;;;;;;7.07;0.90;;;;;;;20.66;40.10;99737.28;16122283;19;129486;-45
2023/01/14 14:25:33;;;;;;;11.70;0.77;;;;;;;20.80;39.74;99729.13;16119907;19;130987;-46
2023/01/14 14:31:00;;;;;;;21.27;1.67;;;;;;;20.90;39.99;99723.50;16119199;19;132640;-44
2023/01/14 14:36:22;;;;;;;15.52;1.17;;;;;;;21.02;39.63;99725.91;16119149;19;129642;-48
2023/01/14 14:41:46;;;;;;;10.60;0.80;;;;;;;21.08;39.83;99712.78;16115928;19;130578;-48
2023/01/14 14:47:27;;;;;;;8.68;0.88;;;;;;;21.16;39.56;99708.53;16133002;19;129430;-45
2023/01/14 14:52:49;;;;;;;12.02;1.00;;;;;;;21.20;39.59;99707.66;16134557;19;130087;-45
2023/01/14 14:58:16;;;;;;;2.05;0.43;;;;;;;21.19;39.33;99694.88;16132811;19;129626;-47
2023/01/14 15:03:39;;;;;;;7.22;0.75;;;;;;;21.21;39.50;99678.72;16131857;19;130602;-49
2023/01/14 15:09:03;;;;;;;5.63;0.77;;;;;;;21.27;39.17;99689.81;16132135;19;129637;-46
2023/01/14 15:14:35;;;;;;;8.87;0.60;;;;;;;21.31;39.47;99668.59;16132486;19;129742;-48
2023/01/14 15:19:57;;;;;;;14.48;0.70;;;;;;;21.31;39.80;99672.22;16133401;19;129633;-50
2023/01/14 15:25:20;;;;;;;2.63;0.82;;;;;;;21.32;39.66;99659.13;16131142;19;133713;-48
2023/01/14 15:30:42;;;;;;;4.97;0.60;;;;;;;21.37;40.23;99675.78;16132153;19;130393;-48
2023/01/14 15:36:15;;;;;;;6.63;0.57;;;;;;;21.39;40.53;99661.56;16133363;19;129363;-47
2023/01/14 15:41:37;;;;;;;6.55;0.70;;;;;;;21.42;40.57;99658.19;16132640;19;129567;-47
2023/01/14 15:46:59;;;;;;;6.82;0.52;;;;;;;21.44;40.92;99656.75;16132339;19;132176;-52
2023/01/14 15:52:33;;;;;;;46.03;3.00;;;;;;;21.49;40.69;99651.19;16130252;19;129661;-48
2023/01/14 15:57:55;;;;;;;26.92;1.63;;;;;;;21.50;40.27;99646.44;16131029;19;129581;-48
2023/01/14 16:03:38;;;;;;;16.92;1.83;;;;;;;21.52;40.04;99633.91;16131547;19;129950;-47
2023/01/14 16:09:04;;;;;;;26.35;1.88;;;;;;;21.54;40.00;99630.00;16131248;19;130454;-49
2023/01/14 16:14:34;;;;;;;;;;;;;;;21.58;40.05;99644.94;16129298;19;130173;-50
2023/01/14 16:19:58;;;;;;;16.65;1.63;;;;;;;21.73;40.65;99644.75;16132010;19;129400;-52
2023/01/14 16:25:20;;;;;;;16.63;1.10;;;;;;;21.85;40.71;99632.34;16126605;19;131259;-49
2023/01/14 16:30:42;;;;;;;13.90;0.90;;;;;;;21.92;40.60;99632.78;16130083;19;130839;-49
2023/01/14 16:36:09;;;;;;;11.65;0.73;;;;;;;21.99;40.63;99636.03;16128157;19;131313;-49
2023/01/14 16:41:31;;;;;;;3.70;0.32;;;;;;;22.11;40.79;99633.63;16127124;19;130458;-51
2023/01/14 16:46:52;;;;;;;12.63;1.42;;;;;;;22.21;40.84;99627.13;16125911;19;130088;-51
2023/01/14 16:52:14;;;;;;;7.20;0.80;;;;;;;22.29;40.81;99628.38;16126001;19;129860;-48
2023/01/14 16:57:36;;;;;;;2.80;0.82;;;;;;;22.33;41.35;99635.00;16126228;19;129688;-47
2023/01/14 17:02:59;;;;;;;6.32;1.05;;;;;;;22.33;41.34;99639.75;16125909;19;130337;-46
2023/01/14 17:08:20;;;;;;;7.40;1.48;;;;;;;22.31;41.85;99647.59;16122715;19;129600;-50
2023/01/14 17:13:42;;;;;;;3.63;1.08;;;;;;;22.36;41.87;99628.81;16125841;19;130269;-46
2023/01/14 17:19:05;;;;;;;6.68;1.20;;;;;;;22.47;41.94;99640.63;16125468;19;129966;-52
2023/01/14 17:24:28;;;;;;;9.38;1.00;;;;;;;22.57;41.81;99678.66;16124348;19;129997;-51
2023/01/14 17:29:51;;;;;;;3.22;0.80;;;;;;;22.58;41.67;99646.84;16122524;19;129520;-48
2023/01/14 17:35:14;;;;;;;1.60;0.80;;;;;;;22.67;41.77;99647.81;16122952;19;129751;-50
2023/01/14 17:40:36;;;;;;;2.95;0.70;;;;;;;22.73;41.51;99649.38;16126452;19;130769;-49
2023/01/14 17:46:04;;;;;;;4.55;0.68;;;;;;;22.79;41.46;99657.66;16125159;19;131046;-47
2023/01/14 17:51:27;;;;;;;7.03;1.05;;;;;;;22.85;41.36;99656.44;16120389;19;129732;-47
2023/01/14 17:56:48;;;;;;;5.40;0.77;;;;;;;22.94;41.39;99659.38;16120646;19;130957;-47
2023/01/14 18:02:11;;;;;;;1.67;0.50;;;;;;;23.00;41.68;99686.88;16119114;19;130205;-48
2023/01/14 18:07:33;;;;;;;4.60;0.70;;;;;;;23.09;41.64;99688.97;16119396;19;129767;-53
2023/01/14 18:12:55;;;;;;;5.57;0.50;;;;;;;23.12;41.75;99699.50;16121799;19;129549;-52
2023/01/14 18:18:17;;;;;;;3.60;0.63;;;;;;;23.14;41.50;99692.47;16123988;19;129440;-47
2023/01/14 18:23:41;;;;;;;4.53;0.60;;;;;;;23.15;41.92;99707.25;16135278;19;129490;-48
2023/01/14 18:29:03;;;;;;;5.78;0.60;;;;;;;23.17;42.17;99716.97;16134868;19;130887;-49
2023/01/14 18:34:25;;;;;;;5.93;0.73;;;;;;;23.15;42.01;99738.78;16134436;19;134721;-50
2023/01/14 18:39:48;;;;;;;8.80;0.70;;;;;;;23.10;42.33;99722.13;16134556;19;129753;-49
2023/01/14 18:45:10;;;;;;;9.07;1.02;;;;;;;23.03;42.87;99722.50;16133532;19;130135;-47
2023/01/14 18:50:32;;;;;;;6.88;0.88;;;;;;;23.07;42.66;99730.28;16132301;19;130635;-47
2023/01/14 18:55:54;;;;;;;5.85;0.50;;;;;;;23.14;42.76;99722.34;16133921;19;129516;-48
2023/01/14 19:01:20;;;;;;;1.88;0.50;;;;;;;23.25;42.60;99726.59;16133165;19;131350;-49
2023/01/14 19:06:42;;;;;;;4.45;0.70;;;;;;;23.37;42.54;99725.28;16132850;19;129897;-48
2023/01/14 19:12:05;;;;;;;2.53;0.40;;;;;;;23.44;42.36;99750.81;16133565;19;129861;-46
2023/01/14 19:17:27;;;;;;;9.60;0.93;;;;;;;23.44;42.63;99770.34;16133534;19;130208;-50
2023/01/14 19:22:48;;;;;;;5.07;0.80;;;;;;;23.41;42.87;99773.75;16134377;19;129527;-49
2023/01/14 19:28:10;;;;;;;10.55;0.60;;;;;;;23.35;43.02;99779.44;16131926;19;129304;-47
2023/01/14 19:33:32;;;;;;;4.03;0.50;;;;;;;23.28;43.43;99779.00;16129987;19;129307;-47
2023/01/14 19:38:54;;;;;;;3.70;0.47;;;;;;;23.20;43.27;99782.50;16132398;19;129478;-48
2023/01/14 19:44:16;;;;;;;4.45;0.80;;;;;;;23.09;43.69;99783.81;16131246;19;129520;-46
2023/01/14 19:49:38;;;;;;;9.18;0.80;;;;;;;22.99;43.31;99791.22;16133002;19;129909;-48
2023/01/14 19:54:59;;;;;;;7.32;0.77;;;;;;;22.93;43.54;99803.56;16134162;19;133078;-47
2023/01/14 20:00:21;;;;;;;14.65;0.70;;;;;;;22.87;43.29;99793.59;16130941;19;129958;-47
2023/01/14 20:05:43;;;;;;;17.60;1.20;;;;;;;22.82;43.75;99796.47;16133322;19;129737;-48
2023/01/14 20:11:11;;;;;;;17.25;1.20;;;;;;;22.79;43.72;99799.84;16129243;19;130375;-46
2023/01/14 20:16:33;;;;;;;19.88;2.20;;;;;;;22.71;43.39;99805.00;16127854;19;129342;-46
2023/01/14 20:21:55;;;;;;;12.93;1.20;;;;;;;22.68;43.30;99808.38;16129947;19;131946;-47
2023/01/14 20:27:17;;;;;;;8.35;0.90;;;;;;;22.68;43.61;99802.78;16127672;19;129462;-48
2023/01/14 20:32:40;;;;;;;5.50;0.90;;;;;;;22.66;43.58;99805.06;16128314;19;129549;-49
2023/01/14 20:38:02;;;;;;;6.15;0.98;;;;;;;22.67;43.94;99805.91;16128188;19;130026;-49
2023/01/14 20:43:27;;;;;;;6.78;0.88;;;;;;;22.66;43.91;99805.06;16127434;19;129408;-46
2023/01/14 20:48:49;;;;;;;11.93;1.27;;;;;;;22.65;43.84;99800.59;16128629;19;130337;-49
2023/01/14 20:54:11;;;;;;;7.07;0.90;;;;;;;22.65;43.60;99802.56;16127488;19;130392;-47
2023/01/14 20:59:33;;;;;;;6.57;1.02;;;;;;;22.64;44.06;99790.59;16128955;19;129607;-46
2023/01/14 21:04:55;;;;;;;11.68;1.00;;;;;;;22.63;43.92;99802.88;16129839;19;129806;-48
2023/01/14 21:10:17;;;;;;;7.35;1.17;;;;;;;22.64;44.38;99812.91;16127192;19;129017;-46
2023/01/14 21:26:59;;;;;;;13.82;1.20;;;;;;;22.46;43.34;99822.06;16125102;19;130235;-47
2023/01/14 21:32:22;;;;;;;14.35;1.17;;;;;;;22.39;43.61;99830.81;16123956;19;129118;-48
2023/01/14 21:38:00;;;;;;;14.00;1.10;;;;;;;22.30;43.71;99830.63;16126712;19;129363;-48
2023/01/14 21:43:25;;;;;;;11.98;1.30;;;;;;;22.22;43.97;99829.31;16123649;19;129618;-47
2023/01/14 21:48:46;;;;;;;20.00;1.40;;;;;;;22.15;43.77;99822.44;16126152;19;129732;-48
2023/01/14 21:54:08;;;;;;;10.52;1.30;;;;;;;22.06;43.28;99837.00;16120971;19;129193;-49
2023/01/14 21:59:30;;;;;;;18.95;1.60;;;;;;;21.94;43.51;99850.50;16122014;19;130033;-48
2023/01/14 22:04:51;;;;;;;18.67;1.85;;;;;;;21.81;43.06;99875.16;16121150;19;129025;-49
2023/01/14 22:10:14;;;;;;;9.75;1.45;;;;;;;21.71;43.15;99893.91;16121825;19;129240;-47
2023/01/14 22:15:37;;;;;;;13.63;1.70;;;;;;;21.60;43.25;99896.78;16114361;19;129681;-48
2023/01/14 22:21:02;;;;;;;8.32;1.05;;;;;;;21.49;43.34;99873.78;16114425;19;129426;-48
2023/01/14 22:26:23;;;;;;;11.52;1.20;;;;;;;21.40;43.31;99892.19;16117075;19;129799;-48
2023/01/14 22:31:45;;;;;;;8.68;1.00;;;;;;;21.32;43.45;99892.81;16117533;19;129449;-47
2023/01/14 22:37:07;;;;;;;8.07;0.95;;;;;;;21.22;43.47;99880.63;16123120;19;129559;-48
2023/01/14 22:42:29;;;;;;;5.60;1.08;;;;;;;21.13;43.33;99875.97;16122563;19;129643;-47
2023/01/14 22:47:51;;;;;;;5.80;1.13;;;;;;;21.06;43.32;99876.28;16120647;19;129470;-48
2023/01/14 22:53:13;;;;;;;7.70;1.33;;;;;;;20.99;43.07;99878.59;16121735;19;129489;-46
2023/01/14 22:58:36;;;;;;;4.97;0.95;;;;;;;20.94;43.29;99884.16;16123469;19;129487;-47
2023/01/14 23:03:59;;;;;;;6.10;0.63;;;;;;;20.87;43.27;99901.16;16124003;19;132755;-48
2023/01/14 23:09:21;;;;;;;4.93;0.90;;;;;;;20.82;43.56;99899.25;16134526;19;129674;-48
2023/01/14 23:14:43;;;;;;;5.68;0.68;;;;;;;20.78;43.37;99906.50;16133961;19;129768;-45
2023/01/14 23:23:51;;;;;;;4.22;0.73;;;;;;;20.72;43.58;99904.81;16136696;19;130643;-49
2023/01/14 23:25:48;;;;;;;4.13;0.70;;;;;;;20.66;43.32;99881.78;16131840;19;129497;-49
2023/01/14 23:31:09;;;;;;;1.33;0.50;;;;;;;20.62;43.19;99896.53;16135872;19;129976;-49
2023/01/14 23:36:31;;;;;;;1.65;0.68;;;;;;;20.56;43.34;99899.34;16132543;19;128952;-47
2023/01/14 23:41:53;;;;;;;4.03;0.80;;;;;;;20.52;43.41;99897.41;16132622;19;129007;-47
2023/01/14 23:47:35;;;;;;;2.13;0.40;;;;;;;20.48;43.36;99894.38;16132874;19;130338;-46
2023/01/14 23:52:57;;;;;;;5.50;0.70;;;;;;;20.43;43.23;99897.19;16132769;19;130652;-45
2023/01/14 23:58:19;;;;;;;1.25;0.50;;;;;;;20.39;43.19;99891.34;16131093;19;129504;-46
